Time;durP1;ratioP1;P1;durP2;ratioP2;P2;SDS_P1;SDS_P2;PMS_P1;PMS_P2;Temp;Humidity;BMP_temperature;BMP_pressure;BME280_temperature;BME280_humidity;BME280_pressure;Samples;Min_cycle;Max_cycle;Signal;HPM_P1;HPM_P2
2021/08/19 00:00:12;;;;;;;10.93;6.93;;;16.90;99.90;;;;;;5053227;28;20320;-71
2021/08/19 00:02:40;;;;;;;9.63;6.67;;;16.90;99.90;;;;;;5053755;28;20194;-72
2021/08/19 00:05:07;;;;;;;11.23;6.80;;;16.90;99.90;;;;;;5054385;28;20685;-72
2021/08/19 00:07:34;;;;;;;9.63;6.40;;;16.90;99.90;;;;;;5054705;28;20577;-72
2021/08/19 00:10:01;;;;;;;8.97;6.30;;;16.80;99.90;;;;;;5052122;28;20215;-72
2021/08/19 00:12:28;;;;;;;9.63;6.33;;;16.80;99.90;;;;;;5053171;28;20203;-72
2021/08/19 00:14:55;;;;;;;6.73;5.30;;;16.80;99.90;;;;;;5053335;28;20207;-71
2021/08/19 00:17:22;;;;;;;9.20;5.97;;;16.90;99.90;;;;;;5061579;28;20563;-72
2021/08/19 00:19:50;;;;;;;10.07;6.43;;;16.90;99.90;;;;;;5055717;28;20206;-72
2021/08/19 00:22:17;;;;;;;8.85;6.43;;;16.90;99.90;;;;;;5053065;28;20199;-72
2021/08/19 00:24:43;;;;;;;7.27;5.63;;;16.90;99.90;;;;;;5074444;28;20203;-72
2021/08/19 00:27:10;;;;;;;8.50;5.72;;;16.80;99.90;;;;;;5056616;28;20676;-72
2021/08/19 00:29:37;;;;;;;8.98;5.50;;;16.90;99.90;;;;;;5052270;28;20202;-72
2021/08/19 00:32:05;;;;;;;8.23;5.50;;;16.90;99.90;;;;;;5052806;28;20588;-72
2021/08/19 00:34:32;;;;;;;9.30;5.70;;;16.80;99.90;;;;;;5063603;28;20203;-72
2021/08/19 00:37:00;;;;;;;8.45;5.28;;;16.80;99.90;;;;;;5052515;28;20585;-72
2021/08/19 00:39:27;;;;;;;9.27;5.90;;;16.80;99.90;;;;;;5052892;28;20210;-72
2021/08/19 00:41:55;;;;;;;7.93;5.23;;;16.80;99.90;;;;;;5053186;28;20209;-73
2021/08/19 00:44:29;;;;;;;10.30;5.27;;;16.80;99.90;;;;;;5053646;28;20210;-72
2021/08/19 00:46:55;;;;;;;8.57;5.50;;;16.80;99.90;;;;;;5052336;28;20199;-72
2021/08/19 00:49:23;;;;;;;10.17;5.87;;;16.80;99.90;;;;;;5053222;28;20198;-71
2021/08/19 00:51:53;;;;;;;8.25;6.35;;;16.80;99.90;;;;;;5052001;28;20223;-73
2021/08/19 00:54:23;;;;;;;7.97;5.20;;;16.80;99.90;;;;;;5053138;28;20582;-73
2021/08/19 00:56:54;;;;;;;8.83;5.70;;;16.80;99.90;;;;;;5052549;28;20664;-72
2021/08/19 00:59:23;;;;;;;10.90;5.53;;;16.80;99.90;;;;;;5052401;28;20202;-72
2021/08/19 01:01:50;;;;;;;9.57;5.77;;;16.80;99.90;;;;;;5055621;28;20203;-72
2021/08/19 01:04:17;;;;;;;6.40;5.40;;;16.70;99.90;;;;;;5062192;28;20245;-71
2021/08/19 01:06:44;;;;;;;9.02;5.32;;;16.80;99.90;;;;;;5053082;28;20206;-72
2021/08/19 01:09:11;;;;;;;9.05;5.90;;;16.80;99.90;;;;;;5051721;28;20557;-72
2021/08/19 01:11:41;;;;;;;12.98;6.22;;;16.70;99.90;;;;;;5051713;28;20404;-72
2021/08/19 01:14:09;;;;;;;8.88;6.07;;;16.80;99.90;;;;;;5052354;28;20217;-71
2021/08/19 01:16:36;;;;;;;10.80;6.30;;;16.70;99.90;;;;;;5053490;28;20206;-72
2021/08/19 01:19:03;;;;;;;10.23;6.32;;;16.70;99.90;;;;;;5062902;28;20199;-72
2021/08/19 01:21:30;;;;;;;10.32;6.63;;;16.80;99.90;;;;;;5051065;28;20210;-72
2021/08/19 01:23:58;;;;;;;10.47;6.60;;;16.80;99.90;;;;;;5052526;28;20202;-72
2021/08/19 01:26:26;;;;;;;12.55;7.05;;;16.80;99.90;;;;;;5051961;28;20290;-72
2021/08/19 01:28:55;;;;;;;11.20;7.47;;;16.80;99.90;;;;;;5053589;28;20213;-72
2021/08/19 01:31:25;;;;;;;10.93;7.18;;;16.80;99.90;;;;;;5032100;28;20223;-72
2021/08/19 01:33:52;;;;;;;12.30;7.93;;;16.80;99.90;;;;;;5042715;28;20600;-73
2021/08/19 01:36:19;;;;;;;10.98;7.28;;;16.80;99.90;;;;;;5054856;28;20206;-73
2021/08/19 01:38:46;;;;;;;13.85;8.30;;;16.80;99.90;;;;;;5053851;28;20534;-72
2021/08/19 01:41:13;;;;;;;13.63;8.25;;;16.80;99.90;;;;;;5060461;28;20315;-72
2021/08/19 01:43:41;;;;;;;11.85;9.10;;;16.80;99.90;;;;;;5060154;28;20199;-72
2021/08/19 01:46:11;;;;;;;12.38;8.57;;;16.80;99.90;;;;;;5051528;28;20199;-72
2021/08/19 01:48:39;;;;;;;14.98;9.70;;;16.80;99.90;;;;;;5058841;28;20637;-72
2021/08/19 01:51:07;;;;;;;14.30;9.93;;;16.80;99.90;;;;;;5051188;28;20223;-72
2021/08/19 01:53:34;;;;;;;14.20;9.27;;;16.80;99.90;;;;;;5051949;28;20217;-72
2021/08/19 01:56:01;;;;;;;13.32;9.63;;;16.80;99.90;;;;;;5051578;28;20207;-72
2021/08/19 01:58:28;;;;;;;14.55;9.73;;;16.70;99.90;;;;;;5031521;28;20545;-72
2021/08/19 02:00:55;;;;;;;14.27;9.80;;;16.80;99.90;;;;;;5048505;28;20282;-71
2021/08/19 02:03:23;;;;;;;14.60;9.73;;;16.80;99.90;;;;;;5052068;28;20195;-71
2021/08/19 02:05:50;;;;;;;14.90;10.55;;;16.70;99.90;;;;;;5045434;28;20195;-72
2021/08/19 02:08:17;;;;;;;17.67;10.30;;;16.70;99.90;;;;;;5057768;28;20641;-72
2021/08/19 02:10:45;;;;;;;17.73;11.40;;;16.70;99.90;;;;;;5051340;28;20226;-72
2021/08/19 02:13:13;;;;;;;17.77;12.40;;;16.70;99.90;;;;;;5049688;28;20204;-72
2021/08/19 02:15:39;;;;;;;15.40;11.27;;;16.70;99.90;;;;;;5051964;28;20270;-72
2021/08/19 02:18:07;;;;;;;17.30;11.43;;;16.70;99.90;;;;;;5049920;28;20195;-72
2021/08/19 02:20:35;;;;;;;18.97;13.47;;;16.70;99.90;;;;;;5050874;28;20207;-72
2021/08/19 02:23:04;;;;;;;17.65;12.85;;;16.60;99.90;;;;;;5050096;28;20207;-71
2021/08/19 02:25:31;;;;;;;16.87;12.30;;;16.60;99.90;;;;;;5051509;28;20293;-71
2021/08/19 02:27:58;;;;;;;16.85;12.82;;;16.60;99.90;;;;;;5052061;28;20568;-73
2021/08/19 02:30:25;;;;;;;18.10;12.57;;;16.60;99.90;;;;;;5051468;28;20218;-72
2021/08/19 02:32:55;;;;;;;19.27;14.63;;;16.60;99.90;;;;;;5052116;28;20214;-72
2021/08/19 02:35:23;;;;;;;16.47;12.87;;;16.60;99.90;;;;;;5051023;28;20206;-72
2021/08/19 02:37:51;;;;;;;16.43;12.20;;;16.60;99.90;;;;;;5051125;28;20464;-72
2021/08/19 02:40:18;;;;;;;17.80;12.03;;;16.60;99.90;;;;;;5051145;28;20211;-72
2021/08/19 02:42:44;;;;;;;18.05;13.50;;;16.60;99.90;;;;;;5051654;28;20666;-71
2021/08/19 02:45:12;;;;;;;16.30;12.02;;;16.60;99.90;;;;;;5051357;28;20574;-72
2021/08/19 02:47:39;;;;;;;16.10;11.55;;;16.60;99.90;;;;;;5051924;28;20567;-72
2021/08/19 02:50:06;;;;;;;19.05;11.40;;;16.60;99.90;;;;;;5051738;28;20207;-72
2021/08/19 02:52:33;;;;;;;14.73;11.15;;;16.60;99.90;;;;;;5051091;28;20239;-72
2021/08/19 02:55:01;;;;;;;14.80;11.10;;;16.60;99.90;;;;;;5051665;28;20594;-72
2021/08/19 02:57:28;;;;;;;15.55;11.68;;;16.60;99.90;;;;;;5051333;28;20644;-72
2021/08/19 02:59:55;;;;;;;18.37;11.80;;;16.60;99.90;;;;;;5051059;28;20293;-71
2021/08/19 03:02:22;;;;;;;17.00;11.70;;;16.50;99.90;;;;;;5055481;28;20209;-72
2021/08/19 03:04:49;;;;;;;15.73;11.20;;;16.60;99.90;;;;;;5055263;28;20206;-72
2021/08/19 03:07:16;;;;;;;16.08;11.20;;;16.60;99.90;;;;;;5055676;28;20203;-72
2021/08/19 03:09:43;;;;;;;16.95;11.75;;;16.60;99.90;;;;;;5054630;28;20567;-71
2021/08/19 03:12:11;;;;;;;16.02;11.15;;;16.50;99.90;;;;;;5055612;28;20241;-72
2021/08/19 03:14:38;;;;;;;14.70;10.32;;;16.60;99.90;;;;;;5055473;28;20203;-72
2021/08/19 03:17:07;;;;;;;17.30;10.90;;;16.50;99.90;;;;;;5054347;28;20205;-72
2021/08/19 03:19:34;;;;;;;15.35;11.10;;;16.50;99.90;;;;;;5055044;28;20273;-72
2021/08/19 03:22:01;;;;;;;14.25;10.05;;;16.50;99.90;;;;;;5054937;28;20207;-71
2021/08/19 03:24:29;;;;;;;16.15;10.77;;;16.50;99.90;;;;;;5055278;28;20207;-72
2021/08/19 03:26:56;;;;;;;14.98;9.52;;;16.50;99.90;;;;;;5055194;28;20679;-72
2021/08/19 03:29:24;;;;;;;13.70;9.68;;;16.50;99.90;;;;;;5054958;28;20211;-72
2021/08/19 03:31:51;;;;;;;12.85;9.05;;;16.60;99.90;;;;;;5055004;28;20849;-72
2021/08/19 03:34:18;;;;;;;11.35;8.50;;;16.50;99.90;;;;;;5054977;28;20274;-72
2021/08/19 03:36:46;;;;;;;10.95;7.90;;;16.60;99.90;;;;;;5054999;28;20214;-72
2021/08/19 03:39:13;;;;;;;11.32;7.85;;;16.50;99.90;;;;;;5054537;28;20207;-73
2021/08/19 03:41:40;;;;;;;13.93;9.35;;;16.50;99.90;;;;;;5055219;28;20202;-72
2021/08/19 03:44:09;;;;;;;11.70;8.18;;;16.50;99.90;;;;;;5068481;28;20664;-72
2021/08/19 03:46:38;;;;;;;14.70;7.78;;;16.50;99.90;;;;;;5075180;28;20206;-72
2021/08/19 03:49:05;;;;;;;9.80;7.10;;;16.60;99.90;;;;;;5058251;28;20211;-72
2021/08/19 03:51:31;;;;;;;10.90;7.65;;;16.60;99.90;;;;;;5053901;28;20611;-73
2021/08/19 03:56:40;;;;;;;11.20;6.97;;;16.60;99.90;;;;;;4919286;23;20226;-69
2021/08/19 03:59:07;;;;;;;10.07;6.63;;;16.60;99.90;;;;;;5073745;28;20241;-70
2021/08/19 04:01:34;;;;;;;12.77;7.55;;;16.60;99.90;;;;;;5074365;28;20285;-70
2021/08/19 04:04:02;;;;;;;9.68;6.85;;;16.60;99.90;;;;;;5073556;28;20205;-70
2021/08/19 04:06:29;;;;;;;12.75;7.20;;;16.70;99.90;;;;;;5074097;28;20212;-70
2021/08/19 04:08:56;;;;;;;13.18;7.65;;;16.60;99.90;;;;;;5072973;28;20202;-71
2021/08/19 04:11:23;;;;;;;11.57;7.05;;;16.70;99.90;;;;;;5073001;28;20226;-70
2021/08/19 04:13:50;;;;;;;9.93;6.97;;;16.70;99.90;;;;;;5092805;28;20202;-70
2021/08/19 04:16:17;;;;;;;9.57;7.03;;;16.60;99.90;;;;;;5093498;28;20205;-70
2021/08/19 04:18:44;;;;;;;12.13;7.43;;;16.60;99.90;;;;;;5072712;28;20202;-70
2021/08/19 04:21:12;;;;;;;14.30;8.13;;;16.60;99.90;;;;;;5073952;28;20648;-70
2021/08/19 04:23:42;;;;;;;11.52;7.05;;;16.60;99.90;;;;;;5074414;28;20206;-70
2021/08/19 04:26:09;;;;;;;12.68;8.30;;;16.60;99.90;;;;;;5072843;28;20217;-70
2021/08/19 04:28:36;;;;;;;9.25;7.30;;;16.60;99.90;;;;;;5073095;28;20206;-70
2021/08/19 04:31:03;;;;;;;12.45;8.05;;;16.50;99.90;;;;;;5073671;28;20209;-70
2021/08/19 04:33:30;;;;;;;11.90;8.13;;;16.60;99.90;;;;;;5073549;28;20206;-70
2021/08/19 04:35:58;;;;;;;13.05;8.50;;;16.60;99.90;;;;;;5073997;28;20206;-70
2021/08/19 04:38:26;;;;;;;14.18;9.70;;;16.50;99.90;;;;;;5073239;28;20209;-70
2021/08/19 04:40:53;;;;;;;11.77;8.77;;;16.50;99.90;;;;;;5073433;28;20210;-70
2021/08/19 04:43:21;;;;;;;15.35;9.48;;;16.50;99.90;;;;;;5073321;28;20204;-70
2021/08/19 04:45:48;;;;;;;14.18;8.73;;;16.60;99.90;;;;;;5073468;28;20733;-70
2021/08/19 04:48:15;;;;;;;12.60;9.10;;;16.50;99.90;;;;;;5073676;28;20205;-69
2021/08/19 04:50:42;;;;;;;16.02;9.88;;;16.50;99.90;;;;;;5072392;28;20206;-69
2021/08/19 04:53:09;;;;;;;14.13;10.15;;;16.50;99.90;;;;;;5072889;28;20275;-70
2021/08/19 04:55:37;;;;;;;16.13;10.68;;;16.50;99.90;;;;;;5072664;28;20637;-70
2021/08/19 04:58:04;;;;;;;15.20;9.85;;;16.50;99.90;;;;;;5072549;28;20312;-70
2021/08/19 05:00:32;;;;;;;14.18;9.82;;;16.60;99.90;;;;;;5072940;28;20214;-70
2021/08/19 05:02:59;;;;;;;13.25;9.82;;;16.60;99.90;;;;;;5071762;28;20575;-70
2021/08/19 05:05:26;;;;;;;13.55;9.68;;;16.60;99.90;;;;;;5069820;28;20195;-71
2021/08/19 05:07:53;;;;;;;14.57;10.55;;;16.60;99.90;;;;;;5071251;28;20263;-70
2021/08/19 05:10:20;;;;;;;15.38;10.05;;;16.60;99.90;;;;;;5071036;28;20562;-70
2021/08/19 05:12:48;;;;;;;11.95;8.88;;;16.60;99.90;;;;;;5072895;28;20291;-68
2021/08/19 05:15:15;;;;;;;14.23;10.02;;;16.60;99.90;;;;;;5069374;28;20198;-68
2021/08/19 05:17:42;;;;;;;13.23;9.90;;;16.70;99.90;;;;;;5069412;28;20604;-70
2021/08/19 05:20:10;;;;;;;15.68;9.82;;;16.70;99.90;;;;;;5070779;28;20252;-70
2021/08/19 05:22:37;;;;;;;17.02;10.48;;;16.80;99.90;;;;;;5072133;28;20202;-70
2021/08/19 05:25:05;;;;;;;15.73;9.82;;;16.80;99.90;;;;;;5072011;28;20206;-68
2021/08/19 05:27:32;;;;;;;13.55;9.95;;;16.80;99.90;;;;;;5071491;28;20698;-70
2021/08/19 05:30:00;;;;;;;13.95;9.55;;;16.80;99.90;;;;;;5072386;28;20194;-70
2021/08/19 05:32:27;;;;;;;15.98;10.60;;;16.80;99.90;;;;;;5071411;28;20501;-69
2021/08/19 05:34:54;;;;;;;13.68;10.80;;;16.80;99.90;;;;;;5072524;28;20213;-70
2021/08/19 05:37:21;;;;;;;14.57;10.20;;;16.80;99.90;;;;;;5078065;28;20208;-70
2021/08/19 05:39:47;;;;;;;15.05;10.60;;;16.80;99.90;;;;;;5092434;28;20201;-70
2021/08/19 05:42:14;;;;;;;15.98;10.75;;;16.80;99.90;;;;;;5092157;28;20663;-70
2021/08/19 05:44:41;;;;;;;14.93;9.80;;;16.80;99.90;;;;;;5092528;28;20201;-70
2021/08/19 05:47:09;;;;;;;14.73;10.38;;;16.90;99.90;;;;;;5091534;28;20205;-70
2021/08/19 05:49:40;;;;;;;15.23;10.50;;;16.90;99.90;;;;;;5072047;28;20202;-70
2021/08/19 05:52:07;;;;;;;13.18;10.35;;;17.00;99.90;;;;;;5071481;28;20657;-71
2021/08/19 05:54:35;;;;;;;15.90;10.68;;;17.10;99.90;;;;;;5072394;28;20210;-70
2021/08/19 05:57:02;;;;;;;15.02;10.68;;;17.20;99.90;;;;;;5071999;28;20796;-70
2021/08/19 05:59:29;;;;;;;16.75;12.07;;;17.20;99.90;;;;;;5071783;28;20206;-70
2021/08/19 06:01:56;;;;;;;15.80;11.50;;;17.30;99.90;;;;;;5071789;28;20205;-70
2021/08/19 06:04:24;;;;;;;17.00;11.60;;;17.40;99.90;;;;;;5059562;28;20232;-70
2021/08/19 06:06:51;;;;;;;14.45;10.82;;;17.50;99.90;;;;;;5067834;28;20570;-70
2021/08/19 06:09:18;;;;;;;14.40;11.38;;;17.50;99.90;;;;;;5075793;28;20204;-70
2021/08/19 06:11:45;;;;;;;16.40;11.55;;;17.40;99.90;;;;;;5073751;28;20550;-71
2021/08/19 06:14:11;;;;;;;17.73;12.23;;;17.30;99.90;;;;;;5071189;28;20214;-70
2021/08/19 06:16:38;;;;;;;14.32;10.90;;;17.30;99.90;;;;;;5070454;28;20221;-70
2021/08/19 06:19:05;;;;;;;17.45;11.63;;;17.30;99.90;;;;;;5071037;28;20194;-70
2021/08/19 06:21:33;;;;;;;18.33;12.38;;;17.30;99.90;;;;;;5070994;28;20202;-71
2021/08/19 06:24:00;;;;;;;18.05;11.32;;;17.30;99.90;;;;;;5071800;28;20206;-70
2021/08/19 06:26:27;;;;;;;16.00;11.20;;;17.30;99.90;;;;;;5071802;28;20574;-70
2021/08/19 06:28:54;;;;;;;15.45;11.43;;;17.30;99.90;;;;;;5070900;28;20202;-70
2021/08/19 06:31:21;;;;;;;15.98;11.70;;;17.30;99.90;;;;;;5071820;28;20206;-71
2021/08/19 06:33:48;;;;;;;17.15;11.52;;;17.30;99.90;;;;;;5070879;28;20321;-70
2021/08/19 06:36:15;;;;;;;17.63;11.70;;;17.30;99.90;;;;;;5071458;28;20213;-70
2021/08/19 06:38:43;;;;;;;17.15;12.48;;;17.30;99.90;;;;;;5070542;28;20209;-70
2021/08/19 06:41:10;;;;;;;15.73;11.90;;;17.20;99.90;;;;;;5071821;28;20204;-70
2021/08/19 06:43:37;;;;;;;18.38;13.32;;;17.20;99.90;;;;;;5071547;28;20212;-70
2021/08/19 06:46:04;;;;;;;16.40;12.55;;;17.30;99.90;;;;;;5071204;28;20217;-70
2021/08/19 06:48:31;;;;;;;16.90;12.60;;;17.20;99.90;;;;;;5070754;28;20666;-71
2021/08/19 06:50:58;;;;;;;18.13;12.40;;;17.30;99.90;;;;;;5071540;28;20190;-70
2021/08/19 06:53:24;;;;;;;15.50;11.70;;;17.20;99.90;;;;;;5071264;28;20325;-70
2021/08/19 06:55:53;;;;;;;16.58;12.18;;;17.30;99.90;;;;;;5071539;28;20206;-70
2021/08/19 06:58:19;;;;;;;17.20;11.90;;;17.30;99.90;;;;;;5071284;28;20210;-70
2021/08/19 07:00:46;;;;;;;19.30;12.68;;;17.30;99.90;;;;;;5070915;28;20494;-71
2021/08/19 07:03:15;;;;;;;17.50;12.23;;;17.30;99.90;;;;;;5070838;28;20220;-67
2021/08/19 07:05:43;;;;;;;18.52;12.40;;;17.30;99.90;;;;;;5071718;28;20218;-69
2021/08/19 07:08:10;;;;;;;18.73;13.02;;;17.40;99.90;;;;;;5070833;28;20240;-69
2021/08/19 07:10:37;;;;;;;19.67;13.13;;;17.40;99.90;;;;;;5070186;28;20213;-70
2021/08/19 07:13:06;;;;;;;17.90;12.30;;;17.40;99.90;;;;;;5071428;28;20324;-70
2021/08/19 07:15:33;;;;;;;16.83;12.07;;;17.50;99.90;;;;;;5069825;28;20255;-70
2021/08/19 07:18:00;;;;;;;15.85;12.07;;;17.50;99.90;;;;;;5070933;28;20242;-69
2021/08/19 07:20:27;;;;;;;15.82;12.07;;;17.50;99.90;;;;;;5068222;28;20202;-68
2021/08/19 07:22:54;;;;;;;17.35;12.02;;;17.50;99.90;;;;;;5070919;28;20247;-70
2021/08/19 07:25:22;;;;;;;17.88;12.70;;;17.50;99.90;;;;;;5070783;28;20202;-70
2021/08/19 07:27:49;;;;;;;19.45;12.68;;;17.50;99.90;;;;;;5070630;28;20206;-70
2021/08/19 07:30:18;;;;;;;18.42;12.98;;;17.50;99.90;;;;;;5069693;28;20263;-70
2021/08/19 07:32:45;;;;;;;19.60;12.50;;;17.50;99.90;;;;;;5070967;28;20222;-70
2021/08/19 07:35:13;;;;;;;17.17;12.02;;;17.50;99.90;;;;;;5070624;28;20246;-71
2021/08/19 07:37:48;;;;;;;15.73;11.35;;;17.50;99.90;;;;;;5070473;28;20210;-69
2021/08/19 07:40:16;;;;;;;16.77;11.75;;;17.50;99.90;;;;;;5070209;28;20201;-70
2021/08/19 07:42:44;;;;;;;16.50;11.23;;;17.40;99.90;;;;;;5070851;28;20346;-68
2021/08/19 07:45:12;;;;;;;16.50;11.38;;;17.50;99.90;;;;;;5070385;28;20302;-68
2021/08/19 07:47:40;;;;;;;16.42;12.13;;;17.50;99.90;;;;;;5073236;28;20640;-71
2021/08/19 07:50:10;;;;;;;17.58;12.70;;;17.50;99.90;;;;;;5073815;28;20199;-69
2021/08/19 07:52:37;;;;;;;16.80;12.23;;;17.50;99.90;;;;;;5073126;28;20260;-69
2021/08/19 07:55:05;;;;;;;16.48;11.80;;;17.60;99.90;;;;;;5074118;28;20210;-69
2021/08/19 07:57:41;;;;;;;17.98;12.95;;;17.60;99.90;;;;;;5074184;28;20206;-69
2021/08/19 08:00:09;;;;;;;16.83;12.35;;;17.60;99.90;;;;;;5073874;28;20244;-70
2021/08/19 08:02:36;;;;;;;17.15;13.13;;;17.70;99.90;;;;;;5073506;28;20213;-69
2021/08/19 08:05:05;;;;;;;16.73;12.65;;;17.70;99.90;;;;;;5073869;28;20279;-70
2021/08/19 08:07:32;;;;;;;20.70;13.93;;;17.70;99.90;;;;;;5073966;28;20256;-70
2021/08/19 08:10:00;;;;;;;17.63;13.25;;;17.60;99.90;;;;;;5072447;28;20240;-70
2021/08/19 08:12:27;;;;;;;16.60;12.90;;;17.50;99.90;;;;;;5074117;28;20668;-70
2021/08/19 08:14:54;;;;;;;17.85;13.52;;;17.40;99.90;;;;;;5072993;28;20206;-70
2021/08/19 08:17:21;;;;;;;16.77;12.48;;;17.50;99.90;;;;;;5068642;28;20260;-70
2021/08/19 08:19:48;;;;;;;18.60;13.65;;;17.50;99.90;;;;;;5073243;28;20206;-70
2021/08/19 08:22:17;;;;;;;17.45;13.25;;;17.50;99.90;;;;;;5073864;28;20202;-70
2021/08/19 08:24:44;;;;;;;19.30;13.48;;;17.60;99.90;;;;;;5073664;28;20245;-70
2021/08/19 08:27:11;;;;;;;15.63;12.02;;;17.60;99.90;;;;;;5072316;28;20259;-68
2021/08/19 08:29:38;;;;;;;17.23;13.32;;;17.60;99.90;;;;;;5073357;28;20195;-68
2021/08/19 08:32:06;;;;;;;17.05;13.40;;;17.80;99.90;;;;;;5073765;28;20314;-68
2021/08/19 08:34:34;;;;;;;16.50;11.98;;;17.60;99.90;;;;;;5072387;28;20257;-70
2021/08/19 08:37:01;;;;;;;19.27;12.77;;;17.90;99.90;;;;;;5071159;28;20593;-70
2021/08/19 08:39:32;;;;;;;15.77;12.32;;;18.20;99.90;;;;;;5073457;28;20260;-70
2021/08/19 08:41:59;;;;;;;18.02;13.27;;;18.30;99.90;;;;;;5073177;28;20831;-69
2021/08/19 08:44:28;;;;;;;18.15;13.13;;;18.50;99.90;;;;;;5073094;28;20198;-70
2021/08/19 08:46:55;;;;;;;16.23;11.60;;;18.50;99.90;;;;;;5073738;28;20315;-70
2021/08/19 08:49:23;;;;;;;15.30;11.00;;;18.50;99.90;;;;;;5072695;28;20671;-69
2021/08/19 08:51:55;;;;;;;13.85;10.85;;;18.50;99.90;;;;;;5072292;28;20206;-69
2021/08/19 08:54:22;;;;;;;17.05;12.05;;;18.60;99.90;;;;;;5073026;28;20291;-69
2021/08/19 08:56:51;;;;;;;14.30;11.55;;;18.60;99.90;;;;;;5072473;28;20202;-70
2021/08/19 08:59:18;;;;;;;15.77;11.10;;;18.60;99.90;;;;;;5072756;28;20234;-68
2021/08/19 09:01:45;;;;;;;14.93;11.82;;;18.70;99.90;;;;;;5072067;28;20648;-68
2021/08/19 09:04:12;;;;;;;17.13;10.98;;;18.70;99.90;;;;;;5072838;28;20206;-68
2021/08/19 09:06:41;;;;;;;16.15;11.05;;;18.70;99.90;;;;;;5066310;28;20202;-68
2021/08/19 09:09:22;;;;;;;15.30;10.73;;;18.70;99.90;;;;;;5069636;28;20205;-68
2021/08/19 09:11:57;;;;;;;15.77;11.10;;;18.70;99.90;;;;;;5071356;28;20199;-68
2021/08/19 09:14:25;;;;;;;16.27;11.18;;;18.80;99.90;;;;;;5072273;28;20217;-70
2021/08/19 09:16:53;;;;;;;17.33;10.60;;;18.90;99.90;;;;;;5071495;28;20202;-70
2021/08/19 09:19:22;;;;;;;15.80;11.57;;;19.00;99.90;;;;;;5062579;28;20255;-70
2021/08/19 09:21:52;;;;;;;17.33;11.40;;;19.00;99.90;;;;;;5078546;28;20202;-70
2021/08/19 09:24:21;;;;;;;21.08;10.68;;;19.10;99.90;;;;;;5071660;28;20255;-71
2021/08/19 09:26:50;;;;;;;15.15;11.38;;;19.00;99.90;;;;;;5076436;28;20202;-70
2021/08/19 09:29:24;;;;;;;15.27;10.98;;;18.90;99.90;;;;;;5071405;28;20194;-70
2021/08/19 09:31:53;;;;;;;17.10;11.95;;;18.80;99.90;;;;;;5070418;28;20210;-70
2021/08/19 09:34:20;;;;;;;15.70;11.43;;;18.80;99.90;;;;;;5089890;28;20750;-68
2021/08/19 09:36:47;;;;;;;17.02;11.02;;;18.70;99.90;;;;;;5091892;28;20615;-68
2021/08/19 09:39:14;;;;;;;12.60;9.55;;;18.60;99.90;;;;;;5091030;28;20511;-70
2021/08/19 09:41:52;;;;;;;12.55;9.23;;;18.50;99.90;;;;;;5092068;28;20243;-71
2021/08/19 09:44:34;;;;;;;14.18;9.60;;;18.50;99.90;;;;;;5091473;28;20720;-69
2021/08/19 09:47:02;;;;;;;14.50;10.10;;;18.60;99.90;;;;;;5092390;28;20557;-70
2021/08/19 09:49:33;;;;;;;14.23;9.90;;;18.50;99.90;;;;;;5070335;28;20203;-68
2021/08/19 09:52:01;;;;;;;12.18;9.57;;;18.50;99.90;;;;;;5071948;28;20676;-69
2021/08/19 09:54:30;;;;;;;14.00;10.00;;;18.60;99.90;;;;;;5070808;28;20283;-70
2021/08/19 09:56:57;;;;;;;14.88;9.38;;;18.50;99.90;;;;;;5071986;28;20316;-69
2021/08/19 09:59:25;;;;;;;14.23;10.00;;;18.80;99.90;;;;;;5071457;28;20233;-69
2021/08/19 10:01:54;;;;;;;12.63;9.70;;;18.70;99.90;;;;;;5070291;28;20615;-69
2021/08/19 10:04:23;;;;;;;12.77;10.02;;;18.70;99.90;;;;;;5070392;28;20245;-70
2021/08/19 10:06:52;;;;;;;16.90;11.32;;;19.00;99.90;;;;;;5054104;28;20264;-69
2021/08/19 10:09:19;;;;;;;13.95;10.65;;;18.90;99.90;;;;;;5068751;28;20289;-69
2021/08/19 10:11:47;;;;;;;15.27;11.18;;;19.00;99.90;;;;;;5071595;28;20610;-69
2021/08/19 10:14:16;;;;;;;16.58;12.05;;;18.90;99.90;;;;;;5069555;28;20249;-69
2021/08/19 10:16:44;;;;;;;17.80;10.77;;;19.00;99.90;;;;;;5070552;28;20609;-70
2021/08/19 10:19:19;;;;;;;16.25;10.70;;;19.20;99.90;;;;;;5071492;28;20232;-69
2021/08/19 10:21:50;;;;;;;15.38;10.45;;;19.00;99.90;;;;;;5071645;28;20198;-69
2021/08/19 10:24:19;;;;;;;15.38;11.07;;;19.00;99.90;;;;;;5070860;28;20256;-69
2021/08/19 10:26:46;;;;;;;15.70;11.13;;;18.90;99.90;;;;;;5071441;28;20202;-69
2021/08/19 10:29:13;;;;;;;15.35;9.85;;;19.00;99.90;;;;;;5070900;28;20213;-69
2021/08/19 10:31:46;;;;;;;14.32;10.25;;;19.00;99.90;;;;;;5071328;28;20203;-70
2021/08/19 10:34:16;;;;;;;17.42;10.82;;;19.00;99.90;;;;;;5070076;28;20226;-70
2021/08/19 10:36:55;;;;;;;16.52;11.15;;;18.90;99.90;;;;;;5064696;28;20702;-69
2021/08/19 10:39:34;;;;;;;17.58;11.95;;;18.90;99.90;;;;;;5070144;28;20260;-69
2021/08/19 10:42:01;;;;;;;18.30;12.13;;;18.70;99.90;;;;;;5071102;28;20699;-69
2021/08/19 10:44:36;;;;;;;18.73;11.30;;;18.70;99.90;;;;;;5070490;28;20202;-69
2021/08/19 10:47:05;;;;;;;16.92;11.98;;;18.80;99.90;;;;;;5071216;28;20252;-69
2021/08/19 10:49:36;;;;;;;16.45;11.40;;;18.70;99.90;;;;;;5071240;28;20251;-69
2021/08/19 10:52:31;;;;;;;15.35;11.82;;;18.70;99.90;;;;;;5069501;28;20672;-69
2021/08/19 10:55:16;;;;;;;17.23;12.32;;;18.70;99.90;;;;;;5070909;28;20226;-69
2021/08/19 10:57:48;;;;;;;18.42;12.35;;;18.70;99.90;;;;;;5070547;28;20255;-70
2021/08/19 11:00:15;;;;;;;19.85;12.52;;;18.70;99.90;;;;;;5070415;28;20202;-69
2021/08/19 11:02:46;;;;;;;17.90;12.90;;;18.70;99.90;;;;;;5070435;28;20267;-69
2021/08/19 11:05:35;;;;;;;18.95;12.65;;;18.70;99.90;;;;;;5070882;28;20652;-69
2021/08/19 11:08:03;;;;;;;19.50;13.50;;;18.60;99.90;;;;;;5070001;28;20210;-70
2021/08/19 11:10:32;;;;;;;18.65;12.48;;;18.70;99.90;;;;;;5069943;28;20206;-69
2021/08/19 11:13:02;;;;;;;19.70;13.20;;;18.70;99.90;;;;;;5070786;28;20631;-69
2021/08/19 11:15:29;;;;;;;18.63;13.85;;;18.80;99.90;;;;;;5069873;28;20687;-69
2021/08/19 11:17:57;;;;;;;19.65;13.82;;;18.60;99.90;;;;;;5070937;28;20237;-69
2021/08/19 11:20:29;;;;;;;21.20;15.02;;;18.50;99.90;;;;;;5070137;28;20474;-69
2021/08/19 11:23:03;;;;;;;21.52;15.63;;;18.50;99.90;;;;;;5072606;28;20199;-69
2021/08/19 11:25:31;;;;;;;22.60;14.75;;;18.40;99.90;;;;;;5074970;28;20198;-69
2021/08/19 11:28:08;;;;;;;21.50;15.52;;;18.30;99.90;;;;;;5074501;28;20211;-69
2021/08/19 11:30:37;;;;;;;21.85;15.30;;;18.40;99.90;;;;;;5074745;28;20656;-69
2021/08/19 11:33:12;;;;;;;22.33;14.98;;;18.20;99.90;;;;;;5073945;28;20230;-69
2021/08/19 11:35:41;;;;;;;23.63;16.45;;;18.40;99.90;;;;;;5067643;28;20255;-69
2021/08/19 11:38:12;;;;;;;22.35;17.17;;;18.50;99.90;;;;;;5072029;28;20190;-69
2021/08/19 11:40:40;;;;;;;21.77;16.35;;;18.40;99.90;;;;;;5073259;28;20199;-69
2021/08/19 11:43:21;;;;;;;20.35;15.52;;;18.40;99.90;;;;;;5073238;28;20190;-69
2021/08/19 11:45:49;;;;;;;22.58;15.85;;;18.60;99.90;;;;;;5062080;28;20198;-69
2021/08/19 11:48:19;;;;;;;19.88;14.32;;;18.60;99.90;;;;;;5064971;28;20652;-69
2021/08/19 11:50:52;;;;;;;20.52;15.60;;;18.90;99.90;;;;;;5072215;28;20203;-69
2021/08/19 11:53:20;;;;;;;20.30;15.07;;;19.10;99.90;;;;;;5064672;28;20555;-69
2021/08/19 11:55:47;;;;;;;22.17;15.50;;;19.00;99.90;;;;;;5068395;28;20210;-69
2021/08/19 11:58:18;;;;;;;19.65;14.70;;;18.80;99.90;;;;;;5061107;28;20203;-69
2021/08/19 12:00:59;;;;;;;21.63;15.25;;;19.00;99.90;;;;;;5067174;28;20198;-69
2021/08/19 12:03:27;;;;;;;17.13;13.25;;;19.00;99.90;;;;;;5069870;28;20264;-69
2021/08/19 12:06:03;;;;;;;18.73;14.05;;;18.80;99.90;;;;;;5063257;28;20234;-69
2021/08/19 12:08:31;;;;;;;19.35;13.55;;;19.10;99.90;;;;;;5067669;28;20287;-68
2021/08/19 12:11:00;;;;;;;16.92;12.02;;;19.00;99.90;;;;;;5067079;28;20233;-68
2021/08/19 12:13:28;;;;;;;16.65;13.07;;;18.90;99.90;;;;;;5070827;28;20660;-68
2021/08/19 12:15:55;;;;;;;19.23;12.70;;;19.00;99.90;;;;;;5068605;28;20193;-70
2021/08/19 12:18:24;;;;;;;18.48;12.90;;;18.70;99.90;;;;;;5069086;28;20687;-69
2021/08/19 12:20:51;;;;;;;18.60;13.18;;;18.70;99.90;;;;;;5068999;28;20206;-69
2021/08/19 12:23:22;;;;;;;19.25;12.52;;;18.50;99.90;;;;;;5066945;28;20198;-70
2021/08/19 12:25:50;;;;;;;18.15;13.25;;;18.60;99.90;;;;;;5074060;28;20618;-70
2021/08/19 12:28:17;;;;;;;16.77;12.43;;;18.40;99.90;;;;;;5062087;28;20655;-70
2021/08/19 12:30:58;;;;;;;15.82;12.48;;;18.40;99.90;;;;;;5068287;28;20672;-70
2021/08/19 12:33:30;;;;;;;17.30;12.20;;;18.60;99.90;;;;;;5070390;28;20210;-69
2021/08/19 12:36:14;;;;;;;16.70;12.10;;;18.50;99.90;;;;;;5073765;28;20672;-69
2021/08/19 12:38:44;;;;;;;17.08;11.63;;;18.50;99.90;;;;;;5073241;28;20213;-70